createdAt,value
2023-01-08T00:00:41.599Z,0
2023-01-08T00:01:22.066Z,0
2023-01-08T00:02:02.594Z,0
2023-01-08T00:02:43.156Z,0
2023-01-08T00:07:13.518Z,0
2023-01-08T00:07:54.000Z,0
2023-01-08T00:08:34.583Z,0
2023-01-08T00:09:15.122Z,0
2023-01-08T00:11:28.147Z,0
2023-01-08T00:12:08.686Z,0
2023-01-08T00:12:49.205Z,0
2023-01-08T00:13:29.747Z,0
2023-01-08T00:16:23.944Z,0
2023-01-08T00:17:04.452Z,0
2023-01-08T00:17:44.955Z,0
2023-01-08T00:18:25.474Z,0
2023-01-08T00:22:21.114Z,0
2023-01-08T00:23:01.516Z,0
2023-01-08T00:23:42.030Z,0
2023-01-08T00:24:22.560Z,0
2023-01-08T00:28:25.764Z,0
2023-01-08T00:29:06.265Z,0
2023-01-08T00:29:46.812Z,0
2023-01-08T00:30:27.361Z,0
2023-01-08T00:31:07.959Z,0
2023-01-08T00:31:48.378Z,0
2023-01-08T00:32:28.923Z,0
2023-01-08T00:33:09.460Z,0
2023-01-08T00:33:50.002Z,0
2023-01-08T00:34:30.542Z,0
2023-01-08T00:39:15.912Z,0
2023-01-08T00:39:56.419Z,0
2023-01-08T00:40:36.913Z,0
2023-01-08T00:41:17.442Z,0
2023-01-08T00:41:57.971Z,0
2023-01-08T00:44:10.763Z,0
2023-01-08T00:44:51.344Z,0
2023-01-08T00:45:31.974Z,0
2023-01-08T00:46:12.460Z,0
2023-01-08T00:50:15.733Z,0
2023-01-08T00:50:56.358Z,0
2023-01-08T00:51:36.858Z,0
2023-01-08T00:52:17.404Z,0
2023-01-08T00:52:58.100Z,0
2023-01-08T00:53:38.536Z,0
2023-01-08T00:54:19.062Z,0
2023-01-08T00:54:59.629Z,0
2023-01-08T00:55:40.161Z,0
2023-01-08T01:02:38.928Z,0
2023-01-08T01:03:19.407Z,0
2023-01-08T01:04:03.623Z,0
2023-01-08T01:04:44.626Z,0
2023-01-08T01:06:57.845Z,0
2023-01-08T01:07:38.373Z,0
2023-01-08T01:08:19.026Z,0
2023-01-08T01:09:00.342Z,0
2023-01-08T01:12:22.956Z,0
2023-01-08T01:13:03.488Z,0
2023-01-08T01:13:44.016Z,0
2023-01-08T01:14:24.650Z,0
2023-01-08T01:15:05.227Z,0
2023-01-08T01:15:45.776Z,0
2023-01-08T01:16:26.346Z,0
2023-01-08T01:17:06.825Z,0
2023-01-08T01:17:47.350Z,0
2023-01-08T01:22:42.808Z,0
2023-01-08T01:23:24.390Z,0
2023-01-08T01:24:04.814Z,0
2023-01-08T01:24:45.327Z,0
2023-01-08T01:26:46.957Z,0
2023-01-08T01:27:28.003Z,0
2023-01-08T01:28:08.528Z,0
2023-01-08T01:28:49.063Z,0
2023-01-08T01:29:29.589Z,0
2023-01-08T01:30:10.195Z,0
2023-01-08T01:30:51.423Z,0
2023-01-08T01:36:57.915Z,0
2023-01-08T01:37:38.457Z,0
2023-01-08T01:38:18.973Z,0
2023-01-08T01:38:59.635Z,0
2023-01-08T01:39:40.006Z,0
2023-01-08T01:40:20.554Z,0
2023-01-08T01:41:01.079Z,0
2023-01-08T01:41:41.604Z,0
2023-01-08T01:48:26.835Z,0
2023-01-08T01:49:07.371Z,0
2023-01-08T01:49:47.912Z,0
2023-01-08T01:50:28.430Z,0
2023-01-08T01:53:07.515Z,0
2023-01-08T01:53:48.083Z,0
2023-01-08T01:54:28.745Z,0
2023-01-08T01:55:10.555Z,0
2023-01-08T01:57:23.288Z,0
2023-01-08T01:58:03.812Z,0
2023-01-08T01:58:44.364Z,0
2023-01-08T01:59:24.911Z,0
2023-01-08T02:03:28.047Z,0
2023-01-08T02:04:08.566Z,0
2023-01-08T02:04:49.154Z,0
2023-01-08T02:05:29.696Z,0
2023-01-08T02:06:10.216Z,0
2023-01-08T02:06:50.748Z,0
2023-01-08T02:07:31.292Z,0
2023-01-08T02:08:11.788Z,0
2023-01-08T02:08:52.321Z,0
2023-01-08T02:13:07.435Z,0
2023-01-08T02:13:47.928Z,0
2023-01-08T02:14:28.439Z,0
2023-01-08T02:15:08.956Z,0
2023-01-08T02:19:12.123Z,0
2023-01-08T02:19:52.621Z,0
2023-01-08T02:20:33.150Z,0
2023-01-08T02:21:13.671Z,0
2023-01-08T02:21:54.192Z,0
2023-01-08T02:22:34.727Z,0
2023-01-08T02:23:15.234Z,0
2023-01-08T02:23:55.785Z,0
2023-01-08T02:24:36.444Z,0
2023-01-08T02:25:16.874Z,0
2023-01-08T02:31:22.354Z,0
2023-01-08T02:32:02.905Z,0
2023-01-08T02:32:43.435Z,0
2023-01-08T02:33:23.944Z,0
2023-01-08T02:34:04.488Z,0
2023-01-08T02:34:45.026Z,0
2023-01-08T02:37:23.190Z,0
2023-01-08T02:38:03.692Z,0
2023-01-08T02:38:44.231Z,0
2023-01-08T02:39:24.777Z,0
2023-01-08T02:43:39.727Z,0
2023-01-08T02:44:20.764Z,0
2023-01-08T02:45:01.295Z,0
2023-01-08T02:45:41.859Z,0
2023-01-08T02:49:04.475Z,0
2023-01-08T02:49:45.028Z,0
2023-01-08T02:50:25.623Z,0
2023-01-08T02:51:06.132Z,0
2023-01-08T02:51:46.705Z,0
2023-01-08T02:52:27.202Z,0
2023-01-08T02:53:07.757Z,0
2023-01-08T02:53:48.272Z,0
2023-01-08T02:54:28.805Z,0
2023-01-08T02:58:23.217Z,0
2023-01-08T02:59:03.740Z,0
2023-01-08T02:59:44.259Z,0
2023-01-08T03:00:24.815Z,0
2023-01-08T03:03:49.155Z,0
2023-01-08T03:04:29.751Z,0
2023-01-08T03:05:10.138Z,0
2023-01-08T03:05:50.661Z,0
2023-01-08T03:06:31.192Z,0
2023-01-08T03:07:11.761Z,0
2023-01-08T03:07:52.231Z,0
2023-01-08T03:08:32.747Z,0
2023-01-08T03:13:57.836Z,0
2023-01-08T03:14:39.270Z,0
2023-01-08T03:15:19.807Z,0
2023-01-08T03:16:00.419Z,0
2023-01-08T03:16:40.954Z,0
2023-01-08T03:17:21.421Z,0
2023-01-08T03:18:02.016Z,0
2023-01-08T03:18:42.509Z,0
2023-01-08T03:25:27.975Z,0
2023-01-08T03:26:08.627Z,0
2023-01-08T03:26:49.046Z,0
2023-01-08T03:27:30.239Z,0
2023-01-08T03:28:10.743Z,0
2023-01-08T03:30:49.320Z,0
2023-01-08T03:31:29.777Z,0
2023-01-08T03:32:10.308Z,0
2023-01-08T03:32:50.887Z,0
2023-01-08T03:39:29.923Z,0
2023-01-08T03:40:10.460Z,0
2023-01-08T03:40:51.748Z,0
2023-01-08T03:41:32.424Z,0
2023-01-08T03:44:14.486Z,0
2023-01-08T03:44:55.018Z,0
2023-01-08T03:47:33.545Z,0
2023-01-08T03:48:14.065Z,0
2023-01-08T03:48:54.542Z,0
2023-01-08T03:49:35.797Z,0
2023-01-08T03:52:32.752Z,0
2023-01-08T03:53:14.093Z,0
2023-01-08T03:53:54.640Z,0
2023-01-08T03:54:36.009Z,0
2023-01-08T03:56:55.598Z,0
2023-01-08T03:57:36.038Z,0
2023-01-08T03:58:16.533Z,0
2023-01-08T03:58:57.058Z,0
2023-01-08T04:04:33.818Z,0
2023-01-08T04:05:14.423Z,0
2023-01-08T04:05:54.905Z,0
2023-01-08T04:06:36.432Z,0
2023-01-08T04:08:54.595Z,0
2023-01-08T04:09:35.145Z,0
2023-01-08T04:10:16.574Z,0
2023-01-08T04:10:57.734Z,0
2023-01-08T04:13:15.963Z,0
2023-01-08T04:13:56.437Z,0
2023-01-08T04:14:36.900Z,0
2023-01-08T04:15:17.456Z,0
2023-01-08T04:19:20.657Z,0
2023-01-08T04:20:01.150Z,0
2023-01-08T04:20:41.646Z,0
2023-01-08T04:21:22.250Z,0
2023-01-08T04:22:02.782Z,0
2023-01-08T04:22:43.299Z,0
2023-01-08T04:23:23.815Z,0
2023-01-08T04:24:04.400Z,0
2023-01-08T04:24:44.930Z,0
2023-01-08T04:25:25.550Z,0
2023-01-08T04:32:10.937Z,0
2023-01-08T04:32:51.451Z,0
2023-01-08T04:33:32.002Z,0
2023-01-08T04:34:12.581Z,0
2023-01-08T04:34:53.079Z,0
2023-01-08T04:35:33.632Z,0
2023-01-08T04:38:06.984Z,0
2023-01-08T04:38:47.528Z,0
2023-01-08T04:39:28.050Z,0
2023-01-08T04:40:08.561Z,0
2023-01-08T04:46:07.186Z,0
2023-01-08T04:46:47.584Z,0
2023-01-08T04:47:28.213Z,0
2023-01-08T04:48:08.704Z,0
2023-01-08T04:52:11.841Z,0
2023-01-08T04:52:52.357Z,0
2023-01-08T04:53:32.913Z,0
2023-01-08T04:54:13.438Z,0
2023-01-08T04:54:53.945Z,0
2023-01-08T04:55:34.457Z,0
2023-01-08T04:56:14.992Z,0
2023-01-08T04:56:55.543Z,0
2023-01-08T04:57:36.044Z,0
2023-01-08T04:58:16.574Z,0
2023-01-08T05:05:01.897Z,0
2023-01-08T05:05:42.413Z,0
2023-01-08T05:06:22.958Z,0
2023-01-08T05:07:03.481Z,0
2023-01-08T05:07:44.000Z,0
2023-01-08T05:08:24.528Z,0
2023-01-08T05:09:05.057Z,0
2023-01-08T05:09:45.533Z,0
2023-01-08T05:10:26.068Z,0
2023-01-08T05:15:21.962Z,0
2023-01-08T05:16:02.583Z,0
2023-01-08T05:16:43.080Z,0
2023-01-08T05:17:23.586Z,0
2023-01-08T05:21:26.771Z,0
2023-01-08T05:22:07.300Z,0
2023-01-08T05:22:47.859Z,0
2023-01-08T05:23:28.418Z,0
2023-01-08T05:24:08.949Z,0
2023-01-08T05:24:49.492Z,0
2023-01-08T05:25:29.993Z,0
2023-01-08T05:26:10.509Z,0
2023-01-08T05:26:51.039Z,0
2023-01-08T05:29:03.817Z,0
2023-01-08T05:29:44.476Z,0
2023-01-08T05:30:25.022Z,0
2023-01-08T05:31:05.579Z,0
2023-01-08T05:33:18.745Z,0
2023-01-08T05:33:59.193Z,0
2023-01-08T05:34:39.687Z,0
2023-01-08T05:35:20.228Z,0
2023-01-08T05:40:15.448Z,0
2023-01-08T05:40:55.951Z,0
2023-01-08T05:41:37.115Z,0
2023-01-08T05:42:17.641Z,0
2023-01-08T05:45:00.415Z,0
2023-01-08T05:45:40.925Z,0
2023-01-08T05:46:21.492Z,0
2023-01-08T05:47:01.997Z,0
2023-01-08T05:47:42.545Z,0
2023-01-08T05:48:23.185Z,0
2023-01-08T05:49:03.583Z,0
2023-01-08T05:49:44.807Z,0
2023-01-08T05:57:21.810Z,0
2023-01-08T05:58:02.327Z,0
2023-01-08T05:58:43.730Z,0
2023-01-08T05:59:24.248Z,0
2023-01-08T06:01:38.891Z,0
2023-01-08T06:02:19.385Z,0
2023-01-08T06:02:59.951Z,0
2023-01-08T06:03:40.532Z,0
2023-01-08T06:07:03.762Z,0
2023-01-08T06:07:44.323Z,0
2023-01-08T06:08:25.731Z,0
2023-01-08T06:09:06.242Z,0
2023-01-08T06:09:46.819Z,0
2023-01-08T06:10:27.288Z,0
2023-01-08T06:11:07.809Z,0
2023-01-08T06:11:48.456Z,0
2023-01-08T06:16:18.806Z,0
2023-01-08T06:16:59.253Z,0
2023-01-08T06:17:39.761Z,0
2023-01-08T06:18:20.322Z,0
2023-01-08T06:22:35.077Z,0
2023-01-08T06:23:15.623Z,0
2023-01-08T06:23:56.175Z,0
2023-01-08T06:24:36.680Z,0
2023-01-08T06:28:11.740Z,0
2023-01-08T06:28:52.277Z,0
2023-01-08T06:29:32.798Z,0
2023-01-08T06:30:13.350Z,0
2023-01-08T06:34:44.403Z,0
2023-01-08T06:35:24.792Z,0
2023-01-08T06:36:05.379Z,0
2023-01-08T06:36:45.863Z,0
2023-01-08T06:40:49.034Z,0
2023-01-08T06:43:27.549Z,0
2023-01-08T06:44:08.049Z,0
2023-01-08T06:44:48.595Z,0
2023-01-08T06:45:29.131Z,0
2023-01-08T06:49:32.308Z,0
2023-01-08T06:50:12.880Z,0
2023-01-08T06:50:53.365Z,0
2023-01-08T06:51:33.910Z,0
2023-01-08T06:52:14.425Z,0
2023-01-08T06:52:54.918Z,0
2023-01-08T06:53:35.430Z,0
2023-01-08T06:54:15.958Z,0
2023-01-08T06:54:56.439Z,0
2023-01-08T06:55:36.993Z,0
2023-01-08T07:02:24.657Z,0
2023-01-08T07:03:02.879Z,0
2023-01-08T07:03:43.302Z,0
2023-01-08T07:04:23.758Z,0
2023-01-08T07:05:04.291Z,0
2023-01-08T07:05:44.843Z,0
2023-01-08T07:06:25.365Z,0
2023-01-08T07:07:05.867Z,0
2023-01-08T07:07:46.397Z,0
2023-01-08T07:08:26.925Z,0
2023-01-08T07:16:05.842Z,0
2023-01-08T07:16:46.289Z,0
2023-01-08T07:17:28.380Z,0
2023-01-08T07:18:08.910Z,0
2023-01-08T07:20:23.438Z,0
2023-01-08T07:21:04.078Z,0
2023-01-08T07:21:44.473Z,0
2023-01-08T07:22:25.521Z,0
2023-01-08T07:25:48.151Z,0
2023-01-08T07:26:28.705Z,0
2023-01-08T07:27:10.109Z,0
2023-01-08T07:27:50.647Z,5
2023-01-08T07:28:31.199Z,5
2023-01-08T07:29:11.748Z,5
2023-01-08T07:29:52.258Z,5
2023-01-08T07:30:32.808Z,5
2023-01-08T07:37:30.023Z,5
2023-01-08T07:38:10.458Z,5
2023-01-08T07:38:50.958Z,5
2023-01-08T07:39:31.631Z,5
2023-01-08T07:45:07.504Z,0
2023-01-08T07:45:49.025Z,0
2023-01-08T07:46:29.666Z,0
2023-01-08T07:47:10.101Z,0
2023-01-08T07:49:12.758Z,0
2023-01-08T07:49:54.207Z,0
2023-01-08T07:50:34.766Z,0
2023-01-08T07:51:15.426Z,0
2023-01-08T07:51:55.983Z,5
2023-01-08T07:52:36.655Z,5
2023-01-08T07:53:17.124Z,5
2023-01-08T07:58:42.396Z,5
2023-01-08T07:59:23.057Z,5
2023-01-08T08:00:03.560Z,10
2023-01-08T08:00:45.076Z,10
2023-01-08T08:01:25.910Z,10
2023-01-08T08:02:06.503Z,10
2023-01-08T08:02:47.059Z,10
2023-01-08T08:09:32.550Z,15
2023-01-08T08:10:13.196Z,15
2023-01-08T08:10:53.759Z,15
2023-01-08T08:11:34.342Z,15
2023-01-08T08:12:14.888Z,15
2023-01-08T08:12:55.463Z,15
2023-01-08T08:13:35.990Z,15
2023-01-08T08:14:16.610Z,15
2023-01-08T08:14:57.095Z,15
2023-01-08T08:19:52.416Z,25
2023-01-08T08:20:32.992Z,20
2023-01-08T08:21:13.546Z,20
2023-01-08T08:21:54.096Z,20
2023-01-08T08:24:37.061Z,15
2023-01-08T08:25:17.556Z,20
2023-01-08T08:25:58.063Z,15
2023-01-08T08:26:38.670Z,15
2023-01-08T08:27:19.163Z,20
2023-01-08T08:29:57.409Z,15
2023-01-08T08:30:42.613Z,15
2023-01-08T08:31:21.529Z,15
2023-01-08T08:32:02.123Z,15
2023-01-08T08:32:42.644Z,15
2023-01-08T08:33:24.123Z,10
2023-01-08T08:34:05.438Z,10
2023-01-08T08:34:46.085Z,10
2023-01-08T08:37:24.789Z,25
2023-01-08T08:38:05.326Z,25
2023-01-08T08:38:45.920Z,25
2023-01-08T08:39:26.337Z,25
2023-01-08T08:42:49.655Z,20
2023-01-08T08:43:30.237Z,20
2023-01-08T08:44:10.656Z,20
2023-01-08T08:44:51.135Z,20
2023-01-08T08:47:04.326Z,25
2023-01-08T08:47:44.827Z,25
2023-01-08T08:48:25.361Z,25
2023-01-08T08:49:05.913Z,25
2023-01-08T08:53:09.303Z,30
2023-01-08T08:53:49.991Z,30
2023-01-08T08:54:30.437Z,30
2023-01-08T08:55:10.984Z,30
2023-01-08T08:55:51.534Z,30
2023-01-08T08:56:32.712Z,25
2023-01-08T09:03:19.337Z,50
2023-01-08T09:03:59.819Z,55
2023-01-08T09:04:40.364Z,55
2023-01-08T09:05:20.888Z,55
2023-01-08T09:08:01.007Z,45
2023-01-08T09:08:41.563Z,45
2023-01-08T09:09:22.234Z,35
2023-01-08T09:10:02.660Z,40
2023-01-08T09:12:55.955Z,40
2023-01-08T09:13:36.503Z,35
2023-01-08T09:14:17.056Z,30
2023-01-08T09:14:57.584Z,30
2023-01-08T09:17:51.905Z,55
2023-01-08T09:18:32.416Z,60
2023-01-08T09:19:13.698Z,65
2023-01-08T09:19:54.235Z,65
2023-01-08T09:23:16.887Z,45
2023-01-08T09:23:57.431Z,45
2023-01-08T09:24:38.105Z,45
2023-01-08T09:25:18.534Z,45
2023-01-08T09:27:56.991Z,70
2023-01-08T09:28:37.529Z,70
2023-01-08T09:29:18.091Z,75
2023-01-08T09:29:58.656Z,80
2023-01-08T09:34:02.383Z,95
2023-01-08T09:34:42.904Z,90
2023-01-08T09:35:23.503Z,85
2023-01-08T09:36:04.040Z,85
2023-01-08T09:38:42.528Z,105
2023-01-08T09:39:23.082Z,105
2023-01-08T09:40:03.788Z,100
2023-01-08T09:40:45.914Z,100
2023-01-08T09:42:47.509Z,110
2023-01-08T09:43:28.023Z,115
2023-01-08T09:44:08.539Z,110
2023-01-08T09:44:49.056Z,110
2023-01-08T09:45:29.567Z,100
2023-01-08T09:46:10.087Z,95
2023-01-08T09:46:50.696Z,90
2023-01-08T09:47:31.131Z,85
2023-01-08T09:48:11.669Z,85
2023-01-08T09:54:17.312Z,85
2023-01-08T09:54:57.834Z,90
2023-01-08T09:55:38.456Z,90
2023-01-08T09:56:19.505Z,95
2023-01-08T09:57:01.704Z,100
2023-01-08T09:59:55.869Z,135
2023-01-08T10:00:36.449Z,135
2023-01-08T10:01:17.078Z,135
2023-01-08T10:01:57.611Z,140
2023-01-08T10:04:40.592Z,135
2023-01-08T10:07:10.873Z,130
2023-01-08T10:07:51.464Z,130
2023-01-08T10:08:32.006Z,130
2023-01-08T10:09:12.547Z,130
2023-01-08T10:11:55.632Z,140
2023-01-08T10:12:36.190Z,145
2023-01-08T10:13:16.709Z,145
2023-01-08T10:13:57.328Z,145
2023-01-08T10:14:37.883Z,145
2023-01-08T10:15:18.428Z,145
2023-01-08T10:15:58.997Z,145
2023-01-08T10:16:39.542Z,145
2023-01-08T10:17:20.112Z,150
2023-01-08T10:24:16.807Z,175
2023-01-08T10:24:57.375Z,170
2023-01-08T10:25:37.994Z,165
2023-01-08T10:26:18.616Z,170
2023-01-08T10:30:21.777Z,160
2023-01-08T10:31:02.223Z,160
2023-01-08T10:31:42.779Z,150
2023-01-08T10:32:24.269Z,145
2023-01-08T10:33:04.843Z,140
2023-01-08T10:33:45.314Z,140
2023-01-08T10:34:25.844Z,145
2023-01-08T10:35:06.363Z,145
2023-01-08T10:41:11.414Z,155
2023-01-08T10:41:52.097Z,165
2023-01-08T10:42:33.347Z,170
2023-01-08T10:43:13.872Z,175
2023-01-08T10:43:54.565Z,175
2023-01-08T10:44:35.079Z,175
2023-01-08T10:47:14.244Z,200
2023-01-08T10:47:54.721Z,190
2023-01-08T10:48:35.194Z,175
2023-01-08T10:49:15.793Z,170
2023-01-08T10:51:35.443Z,185
2023-01-08T10:52:15.977Z,195
2023-01-08T10:52:56.495Z,210
2023-01-08T10:53:37.009Z,220
2023-01-08T10:57:02.434Z,240
2023-01-08T10:57:40.933Z,250
2023-01-08T10:58:21.469Z,240
2023-01-08T10:59:01.966Z,230
2023-01-08T10:59:42.497Z,215
2023-01-08T11:00:23.038Z,215
2023-01-08T11:01:03.606Z,225
2023-01-08T11:01:44.119Z,225
2023-01-08T11:02:24.761Z,230
2023-01-08T11:09:10.512Z,180
2023-01-08T11:09:51.037Z,155
2023-01-08T11:10:31.595Z,140
2023-01-08T11:11:12.151Z,140
2023-01-08T11:11:52.704Z,145
2023-01-08T11:12:33.238Z,150
2023-01-08T11:13:13.740Z,145
2023-01-08T11:13:54.291Z,135
2023-01-08T11:14:34.791Z,130
2023-01-08T11:21:20.089Z,155
2023-01-08T11:22:00.593Z,145
2023-01-08T11:22:41.124Z,130
2023-01-08T11:23:21.657Z,120
2023-01-08T11:24:02.169Z,110
2023-01-08T11:24:42.692Z,110
2023-01-08T11:25:23.202Z,115
2023-01-08T11:26:03.758Z,120
2023-01-08T11:26:44.310Z,125
2023-01-08T11:27:24.824Z,125
2023-01-08T11:34:10.409Z,205
2023-01-08T11:34:50.938Z,205
2023-01-08T11:35:31.491Z,210
2023-01-08T11:36:13.616Z,210
2023-01-08T11:36:52.577Z,205
2023-01-08T11:37:34.012Z,200
2023-01-08T11:38:14.555Z,195
2023-01-08T11:38:55.095Z,190
2023-01-08T11:45:00.406Z,185
2023-01-08T11:45:40.919Z,185
2023-01-08T11:46:21.444Z,185
2023-01-08T11:47:01.971Z,195
2023-01-08T11:47:42.535Z,195
2023-01-08T11:48:23.062Z,200
2023-01-08T11:49:03.602Z,195
2023-01-08T11:49:44.098Z,185
2023-01-08T11:50:24.608Z,170
2023-01-08T11:57:10.433Z,180
2023-01-08T11:59:48.951Z,165
2023-01-08T12:00:29.428Z,160
2023-01-08T12:01:09.993Z,155
2023-01-08T12:01:50.576Z,155
2023-01-08T12:05:13.990Z,170
2023-01-08T12:05:54.515Z,180
2023-01-08T12:06:36.893Z,185
2023-01-08T12:07:15.526Z,170
2023-01-08T12:07:56.032Z,160
2023-01-08T12:08:37.430Z,160
2023-01-08T12:09:17.919Z,155
2023-01-08T12:09:58.465Z,135
2023-01-08T12:16:43.735Z,85
2023-01-08T12:17:24.984Z,90
2023-01-08T12:18:04.754Z,85
2023-01-08T12:18:45.274Z,80
2023-01-08T12:19:25.797Z,75
2023-01-08T12:20:06.398Z,70
2023-01-08T12:20:46.925Z,60
2023-01-08T12:21:27.450Z,60
2023-01-08T12:22:07.979Z,60
2023-01-08T12:22:48.501Z,65
2023-01-08T12:29:33.932Z,95
2023-01-08T12:30:14.468Z,95
2023-01-08T12:30:55.067Z,95
2023-01-08T12:31:35.606Z,95
2023-01-08T12:32:16.144Z,95
2023-01-08T12:32:56.657Z,90
2023-01-08T12:33:37.190Z,90
2023-01-08T12:34:17.737Z,100
2023-01-08T12:34:58.256Z,105
2023-01-08T12:41:04.005Z,165
2023-01-08T12:41:44.545Z,175
2023-01-08T12:42:25.596Z,170
2023-01-08T12:43:06.157Z,155
2023-01-08T12:43:46.683Z,145
2023-01-08T12:44:27.255Z,140
2023-01-08T12:45:07.813Z,155
2023-01-08T12:45:48.373Z,170
2023-01-08T12:52:33.588Z,125
2023-01-08T12:53:14.104Z,110
2023-01-08T12:53:54.640Z,100
2023-01-08T12:54:35.224Z,100
2023-01-08T12:55:15.762Z,105
2023-01-08T12:55:56.340Z,100
2023-01-08T12:56:36.859Z,100
2023-01-08T12:57:17.392Z,100
2023-01-08T12:57:57.901Z,95
2023-01-08T12:58:38.440Z,90
2023-01-08T13:04:03.724Z,90
2023-01-08T13:04:44.270Z,90
2023-01-08T13:05:24.766Z,90
2023-01-08T13:06:05.282Z,85
2023-01-08T13:06:45.838Z,85
2023-01-08T13:07:26.535Z,85
2023-01-08T13:08:07.072Z,85
2023-01-08T13:08:47.602Z,85
2023-01-08T13:09:28.203Z,85
2023-01-08T13:13:02.196Z,100
2023-01-08T13:13:42.761Z,110
2023-01-08T13:14:23.300Z,110
2023-01-08T13:15:03.914Z,115
2023-01-08T13:17:47.041Z,125
2023-01-08T13:18:27.595Z,130
2023-01-08T13:19:08.145Z,145
2023-01-08T13:19:48.653Z,155
2023-01-08T13:20:29.194Z,165
2023-01-08T13:21:09.784Z,160
2023-01-08T13:21:50.336Z,155
2023-01-08T13:22:30.915Z,155
2023-01-08T13:23:11.458Z,150
2023-01-08T13:29:56.888Z,135
2023-01-08T13:30:37.418Z,140
2023-01-08T13:31:17.968Z,140
2023-01-08T13:31:59.500Z,135
2023-01-08T13:32:40.011Z,135
2023-01-08T13:33:20.564Z,130
2023-01-08T13:34:01.110Z,125
2023-01-08T13:34:41.640Z,130
2023-01-08T13:41:26.937Z,110
2023-01-08T13:42:07.461Z,120
2023-01-08T13:42:47.973Z,120
2023-01-08T13:43:28.479Z,120
2023-01-08T13:44:09.037Z,115
2023-01-08T13:44:49.584Z,105
2023-01-08T13:45:30.212Z,90
2023-01-08T13:46:10.786Z,75
2023-01-08T13:46:51.267Z,70
2023-01-08T13:54:17.172Z,105
2023-01-08T13:54:57.691Z,115
2023-01-08T13:55:38.241Z,120
2023-01-08T13:56:18.742Z,120
2023-01-08T13:56:59.286Z,125
2023-01-08T13:57:39.793Z,125
2023-01-08T13:58:20.325Z,125
2023-01-08T13:59:00.879Z,125
2023-01-08T13:59:41.420Z,125
2023-01-08T14:06:26.810Z,105
2023-01-08T14:07:07.352Z,100
2023-01-08T14:09:26.166Z,90
2023-01-08T14:10:06.687Z,85
2023-01-08T14:10:47.905Z,80
2023-01-08T14:11:29.526Z,75
2023-01-08T14:13:42.266Z,75
2023-01-08T14:14:22.854Z,75
2023-01-08T14:15:03.344Z,85
2023-01-08T14:15:43.910Z,90
2023-01-08T14:18:12.721Z,90
2023-01-08T14:18:53.316Z,95
2023-01-08T14:19:33.865Z,100
2023-01-08T14:20:14.399Z,105
2023-01-08T14:22:57.447Z,110
2023-01-08T14:23:38.774Z,115
2023-01-08T14:24:19.270Z,105
2023-01-08T14:24:59.793Z,100
2023-01-08T14:25:40.310Z,90
2023-01-08T14:26:20.814Z,75
2023-01-08T14:27:01.341Z,70
2023-01-08T14:27:41.865Z,70
2023-01-08T14:33:37.456Z,65
2023-01-08T14:34:17.991Z,60
2023-01-08T14:34:58.517Z,55
2023-01-08T14:35:39.082Z,50
2023-01-08T14:39:02.625Z,45
2023-01-08T14:39:43.198Z,45
2023-01-08T14:40:23.680Z,50
2023-01-08T14:41:04.276Z,50
2023-01-08T14:41:44.780Z,55
2023-01-08T14:42:25.312Z,55
2023-01-08T14:43:05.835Z,60
2023-01-08T14:43:46.384Z,65
2023-01-08T14:44:36.461Z,65
2023-01-08T14:51:12.171Z,60
2023-01-08T14:51:52.991Z,60
2023-01-08T14:52:33.209Z,55
2023-01-08T14:53:13.724Z,50
2023-01-08T14:53:54.232Z,45
2023-01-08T14:54:34.784Z,45
2023-01-08T14:55:16.206Z,45
2023-01-08T14:55:56.746Z,45
2023-01-08T15:01:22.374Z,30
2023-01-08T15:02:03.001Z,30
2023-01-08T15:02:43.372Z,30
2023-01-08T15:03:25.227Z,25
2023-01-08T15:04:05.194Z,25
2023-01-08T15:04:45.720Z,25
2023-01-08T15:05:26.293Z,30
2023-01-08T15:06:06.780Z,30
2023-01-08T15:12:52.370Z,25
2023-01-08T15:13:32.892Z,25
2023-01-08T15:14:13.392Z,25
2023-01-08T15:14:53.920Z,25
2023-01-08T15:15:34.459Z,25
2023-01-08T15:16:14.977Z,25
2023-01-08T15:16:56.184Z,20
2023-01-08T15:17:36.759Z,20
2023-01-08T15:23:02.528Z,15
2023-01-08T15:23:43.055Z,15
2023-01-08T15:24:23.575Z,15
2023-01-08T15:25:04.118Z,15
2023-01-08T15:25:44.624Z,15
2023-01-08T15:26:25.142Z,15
2023-01-08T15:27:05.678Z,10
2023-01-08T15:27:46.198Z,10
2023-01-08T15:31:53.294Z,10
2023-01-08T15:32:33.669Z,5
2023-01-08T15:33:15.870Z,5
2023-01-08T15:33:54.720Z,5
2023-01-08T15:34:35.277Z,5
2023-01-08T15:35:15.766Z,5
2023-01-08T15:35:56.303Z,5
2023-01-08T15:36:36.849Z,5
2023-01-08T15:43:22.256Z,5
2023-01-08T15:44:02.801Z,5
2023-01-08T15:44:43.307Z,0
2023-01-08T15:47:21.879Z,0
2023-01-08T15:48:02.447Z,0
2023-01-08T15:48:43.035Z,0
2023-01-08T15:49:23.526Z,0
2023-01-08T15:52:46.778Z,0
2023-01-08T15:53:27.332Z,0
2023-01-08T15:54:07.900Z,0
2023-01-08T15:54:48.452Z,0
2023-01-08T15:55:29.939Z,0
2023-01-08T15:56:10.477Z,0
2023-01-08T15:56:50.978Z,0
2023-01-08T16:00:25.135Z,0
2023-01-08T16:01:05.876Z,0
2023-01-08T16:01:46.326Z,0
2023-01-08T16:02:26.990Z,0
2023-01-08T16:06:30.303Z,0
2023-01-08T16:07:10.805Z,0
2023-01-08T16:07:51.307Z,0
2023-01-08T16:08:31.846Z,0
2023-01-08T16:09:12.417Z,0
2023-01-08T16:09:52.934Z,0
2023-01-08T16:10:34.354Z,0
2023-01-08T16:15:31.224Z,0
2023-01-08T16:16:11.810Z,0
2023-01-08T16:16:52.269Z,0
2023-01-08T16:17:33.488Z,0
2023-01-08T16:20:56.211Z,0
2023-01-08T16:21:36.763Z,0
2023-01-08T16:22:17.318Z,0
2023-01-08T16:22:57.849Z,0
2023-01-08T16:23:38.356Z,0
2023-01-08T16:24:18.900Z,0
2023-01-08T16:24:59.461Z,0
2023-01-08T16:25:39.979Z,0
2023-01-08T16:28:18.445Z,0
2023-01-08T16:28:58.950Z,0
2023-01-08T16:29:39.485Z,0
2023-01-08T16:30:20.008Z,0
2023-01-08T16:34:23.305Z,0
2023-01-08T16:35:03.802Z,0
2023-01-08T16:35:44.326Z,0
2023-01-08T16:36:24.832Z,0
2023-01-08T16:37:05.352Z,0
2023-01-08T16:37:45.936Z,0
2023-01-08T16:38:26.440Z,0
2023-01-08T16:39:06.953Z,0
2023-01-08T16:46:04.810Z,0
2023-01-08T16:46:45.294Z,0
2023-01-08T16:47:27.491Z,0
2023-01-08T16:48:11.756Z,0
2023-01-08T16:50:30.406Z,0
2023-01-08T16:51:10.954Z,0
2023-01-08T16:51:51.492Z,0
2023-01-08T16:52:31.997Z,0
2023-01-08T16:54:51.732Z,0
2023-01-08T16:55:32.263Z,0
2023-01-08T16:56:12.807Z,0
2023-01-08T16:56:53.362Z,0
2023-01-08T17:00:16.684Z,0
2023-01-08T17:00:57.262Z,0
2023-01-08T17:01:37.793Z,0
2023-01-08T17:02:18.305Z,0
2023-01-08T17:02:58.824Z,0
2023-01-08T17:03:39.409Z,0
2023-01-08T17:04:19.857Z,0
2023-01-08T17:05:01.024Z,0
2023-01-08T17:10:26.237Z,0
2023-01-08T17:11:07.328Z,0
2023-01-08T17:11:47.977Z,0
2023-01-08T17:12:28.457Z,0
2023-01-08T17:13:08.982Z,0
2023-01-08T17:15:47.580Z,0
2023-01-08T17:16:28.170Z,0
2023-01-08T17:17:08.596Z,0
2023-01-08T17:17:49.151Z,0
2023-01-08T17:21:24.113Z,0
2023-01-08T17:22:04.656Z,0
2023-01-08T17:22:45.206Z,0
2023-01-08T17:23:25.792Z,0
2023-01-08T17:29:02.407Z,0
2023-01-08T17:29:42.987Z,0
2023-01-08T17:30:23.527Z,0
2023-01-08T17:31:04.066Z,0
2023-01-08T17:35:07.293Z,0
2023-01-08T17:35:47.799Z,0
2023-01-08T17:36:28.305Z,0
2023-01-08T17:37:08.827Z,0
2023-01-08T17:37:49.346Z,0
2023-01-08T17:38:29.860Z,0
2023-01-08T17:39:10.460Z,0
2023-01-08T17:39:51.008Z,0
2023-01-08T17:40:31.544Z,0
2023-01-08T17:46:07.648Z,0
2023-01-08T17:46:48.146Z,0
2023-01-08T17:47:29.490Z,0
2023-01-08T17:48:09.989Z,0
2023-01-08T17:51:04.065Z,0
2023-01-08T17:51:44.603Z,0
2023-01-08T17:52:25.119Z,0
2023-01-08T17:53:05.659Z,0
2023-01-08T17:56:41.906Z,0
2023-01-08T17:57:22.388Z,0
2023-01-08T17:58:02.956Z,0
2023-01-08T17:58:43.424Z,0
2023-01-08T18:02:19.054Z,0
2023-01-08T18:02:59.363Z,0
2023-01-08T18:03:39.898Z,0
2023-01-08T18:04:20.491Z,0
2023-01-08T18:07:03.479Z,0
2023-01-08T18:07:44.028Z,0
2023-01-08T18:08:25.265Z,0
2023-01-08T18:10:38.325Z,0
2023-01-08T18:11:18.856Z,0
2023-01-08T18:11:59.522Z,0
2023-01-08T18:12:39.985Z,0
2023-01-08T18:16:03.394Z,0
2023-01-08T18:16:43.878Z,0
2023-01-08T18:17:24.392Z,0
2023-01-08T18:18:04.913Z,0
2023-01-08T18:18:45.441Z,0
2023-01-08T18:19:26.018Z,0
2023-01-08T18:20:06.573Z,0
2023-01-08T18:20:47.098Z,0
2023-01-08T18:26:53.182Z,0
2023-01-08T18:27:33.739Z,0
2023-01-08T18:28:14.260Z,0
2023-01-08T18:28:54.770Z,0
2023-01-08T18:29:35.302Z,0
2023-01-08T18:30:15.841Z,0
2023-01-08T18:30:56.382Z,0
2023-01-08T18:31:36.939Z,0
2023-01-08T18:32:17.459Z,0
2023-01-08T18:32:57.970Z,0
2023-01-08T18:37:43.066Z,0
2023-01-08T18:38:23.618Z,0
2023-01-08T18:39:04.147Z,0
2023-01-08T18:39:44.668Z,0
2023-01-08T18:40:25.208Z,0
2023-01-08T18:43:03.745Z,0
2023-01-08T18:43:46.180Z,0
2023-01-08T18:44:24.746Z,0